Time;durP1;ratioP1;P1;durP2;ratioP2;P2;SDS_P1;SDS_P2;PMS_P1;PMS_P2;Temp;Humidity;BMP_temperature;BMP_pressure;BME280_temperature;BME280_humidity;BME280_pressure;Samples;Min_cycle;Max_cycle;Signal;HPM_P1;HPM_P2
2022/02/23 00:00:13;;;;;;;2.93;1.43;;;7.40;99.90;6.80;100191.00;;;;4932749;28;93404;-66
2022/02/23 00:02:39;;;;;;;3.53;1.67;;;6.90;99.90;6.80;100197.00;;;;4922480;28;92148;-68
2022/02/23 00:05:06;;;;;;;1.97;1.57;;;6.90;99.90;6.80;100192.00;;;;4914778;28;108984;-69
2022/02/23 00:07:31;;;;;;;6.00;1.27;;;6.90;99.90;6.80;100204.00;;;;4916967;28;99031;-67
2022/02/23 00:09:57;;;;;;;3.90;1.77;;;6.90;99.90;6.80;100197.00;;;;4915833;28;123592;-67
2022/02/23 00:12:23;;;;;;;2.17;1.20;;;6.90;99.90;6.90;100193.00;;;;4932823;28;92603;-68
2022/02/23 00:14:48;;;;;;;1.70;1.20;;;7.60;99.90;6.90;100188.00;;;;4937701;28;108946;-68
2022/02/23 00:17:14;;;;;;;1.30;1.20;;;7.50;99.90;6.90;100194.00;;;;4934643;28;122279;-68
2022/02/23 00:19:40;;;;;;;1.77;1.00;;;6.90;99.90;6.90;100206.00;;;;4934224;28;122420;-69
2022/02/23 00:22:05;;;;;;;2.00;1.40;;;7.00;99.90;6.90;100218.00;;;;4935744;28;92728;-68
2022/02/23 00:24:31;;;;;;;1.33;0.97;;;7.00;99.90;6.90;100236.00;;;;4921745;28;96699;-67
2022/02/23 00:26:57;;;;;;;4.33;1.30;;;7.40;99.90;7.00;100239.00;;;;4921857;28;122922;-67
2022/02/23 00:29:22;;;;;;;2.40;1.13;;;7.10;99.90;7.00;100235.00;;;;4934561;28;119667;-68
2022/02/23 00:31:48;;;;;;;3.50;1.23;;;7.10;99.90;7.00;100238.00;;;;4935192;28;110880;-67
2022/02/23 00:34:14;;;;;;;3.03;1.13;;;7.40;99.90;7.00;100244.00;;;;4932948;28;108420;-68
2022/02/23 00:36:40;;;;;;;1.53;0.90;;;7.10;99.90;7.10;100251.00;;;;4916467;28;123009;-68
2022/02/23 00:39:06;;;;;;;3.03;1.33;;;7.20;99.90;7.10;100256.00;;;;4916294;28;93751;-67
2022/02/23 00:41:32;;;;;;;1.53;0.80;;;7.20;99.90;7.10;100262.00;;;;4916487;28;92704;-66
2022/02/23 00:43:58;;;;;;;2.90;1.30;;;7.10;99.90;7.10;100282.00;;;;4916528;28;92893;-66
2022/02/23 00:46:24;;;;;;;1.40;1.03;;;7.20;99.90;7.10;100287.00;;;;4946900;28;93987;-66
2022/02/23 00:48:49;;;;;;;1.87;0.97;;;7.10;99.90;7.00;100298.00;;;;4932909;28;120977;-66
2022/02/23 00:51:15;;;;;;;1.23;0.70;;;7.10;99.90;7.00;100310.00;;;;4918376;28;109515;-67
2022/02/23 00:53:41;;;;;;;2.03;0.97;;;7.10;99.90;6.90;100312.00;;;;4915576;28;108564;-66
2022/02/23 00:56:06;;;;;;;3.70;1.27;;;7.10;99.90;6.80;100333.00;;;;4915802;28;93392;-67
2022/02/23 00:58:32;;;;;;;1.40;0.80;;;7.00;99.90;6.80;100311.00;;;;4914900;28;122180;-66
2022/02/23 01:00:57;;;;;;;4.07;0.93;;;6.90;99.90;6.70;100338.00;;;;4923567;28;107482;-66
2022/02/23 01:03:23;;;;;;;2.63;0.73;;;6.90;99.90;6.50;100345.00;;;;4935088;28;108535;-68
2022/02/23 01:05:49;;;;;;;3.97;1.27;;;6.70;99.90;6.50;100353.00;;;;4933178;28;123960;-66
2022/02/23 01:08:14;;;;;;;4.90;0.93;;;6.70;99.90;6.40;100357.00;;;;4934355;28;123034;-66
2022/02/23 01:10:40;;;;;;;3.20;1.20;;;6.60;99.90;6.40;100365.00;;;;4933773;28;109539;-67
2022/02/23 01:13:06;;;;;;;7.70;1.53;;;6.50;99.90;6.30;100365.00;;;;4925027;28;108841;-66
2022/02/23 01:15:32;;;;;;;6.47;1.00;;;6.40;99.90;6.20;100365.00;;;;4914340;28;122230;-67
2022/02/23 01:17:58;;;;;;;1.87;0.70;;;6.40;99.90;6.10;100366.00;;;;4916116;28;92905;-67
2022/02/23 01:20:24;;;;;;;2.73;1.37;;;6.30;99.90;6.10;100381.00;;;;4922822;28;109343;-68
2022/02/23 01:22:52;;;;;;;2.00;1.10;;;6.30;99.90;6.00;100388.00;;;;4934619;28;100109;-68
2022/02/23 01:25:17;;;;;;;4.27;1.47;;;6.80;99.90;6.00;100383.00;;;;4949072;28;94746;-68
2022/02/23 01:27:43;;;;;;;6.13;1.20;;;6.10;99.90;6.00;100396.00;;;;4924185;28;123152;-69
2022/02/23 01:30:09;;;;;;;8.13;1.07;;;6.10;99.90;6.00;100400.00;;;;4913805;28;106078;-68
2022/02/23 01:32:35;;;;;;;6.57;1.57;;;6.10;99.90;5.90;100414.00;;;;4912947;28;94457;-68
2022/02/23 01:35:00;;;;;;;2.40;1.27;;;6.10;99.90;5.90;100413.00;;;;4914779;28;93051;-68
2022/02/23 01:37:26;;;;;;;6.53;1.67;;;6.10;99.90;5.90;100417.00;;;;4915431;28;115453;-69
2022/02/23 01:39:52;;;;;;;9.33;1.43;;;6.00;99.90;5.80;100415.00;;;;4915188;28;91953;-69
2022/02/23 01:42:24;;;;;;;3.40;1.40;;;5.90;99.90;5.80;100426.00;;;;4934392;28;92896;-68
2022/02/23 01:44:49;;;;;;;5.63;1.60;;;6.00;99.90;5.80;100437.00;;;;4934525;28;122181;-69
2022/02/23 01:47:15;;;;;;;0.73;0.73;;;5.90;99.90;5.70;100429.00;;;;4913554;28;121855;-68
2022/02/23 01:49:41;;;;;;;4.27;1.70;;;6.40;99.90;5.70;100450.00;;;;4914246;28;98903;-68
2022/02/23 01:52:06;;;;;;;9.37;1.40;;;6.30;99.90;5.70;100456.00;;;;4916083;28;92819;-68
2022/02/23 01:54:32;;;;;;;3.70;1.37;;;5.80;99.90;5.70;100461.00;;;;4914476;28;122818;-67
2022/02/23 01:56:59;;;;;;;7.17;2.07;;;5.80;99.90;5.60;100467.00;;;;4913243;28;119819;-68
2022/02/23 01:59:25;;;;;;;1.70;1.13;;;5.70;99.90;5.60;100477.00;;;;4920356;28;92991;-67
2022/02/23 02:01:54;;;;;;;2.33;1.07;;;5.70;99.90;5.50;100485.00;;;;4913425;28;108946;-66
2022/02/23 02:04:23;;;;;;;4.90;1.70;;;5.60;99.90;5.50;100476.00;;;;4916401;28;93256;-67
2022/02/23 02:06:50;;;;;;;4.50;1.03;;;5.60;99.90;5.50;100483.00;;;;4914722;28;92593;-67
2022/02/23 02:09:17;;;;;;;8.03;1.63;;;5.60;99.90;5.50;100492.00;;;;4928518;28;107251;-68
2022/02/23 02:11:43;;;;;;;4.37;1.30;;;5.60;99.90;5.50;100501.00;;;;4914792;28;93944;-68
2022/02/23 02:14:10;;;;;;;3.00;1.50;;;5.60;99.90;5.50;100488.00;;;;4920654;28;93105;-68
2022/02/23 02:16:36;;;;;;;7.73;1.97;;;5.60;99.90;5.40;100491.00;;;;4931869;28;92983;-70
2022/02/23 02:19:03;;;;;;;1.67;0.90;;;5.60;99.90;5.40;100510.00;;;;4932456;28;96771;-70
2022/02/23 02:21:49;;;;;;;6.63;1.70;;;5.60;99.90;5.40;100502.00;;;;4934186;28;92783;-68
2022/02/23 02:24:15;;;;;;;3.83;1.43;;;5.60;99.90;5.40;100503.00;;;;4934047;28;94682;-68
2022/02/23 02:26:41;;;;;;;4.60;1.80;;;5.50;99.90;5.30;100514.00;;;;4930373;28;122725;-68
2022/02/23 02:29:06;;;;;;;9.40;1.43;;;5.90;99.90;5.30;100518.00;;;;4927333;28;99289;-67
2022/02/23 02:31:32;;;;;;;1.70;1.07;;;6.10;99.90;5.30;100530.00;;;;4913569;28;110662;-69
2022/02/23 02:33:59;;;;;;;10.03;2.03;;;5.40;99.90;5.20;100537.00;;;;4913693;28;121501;-66
2022/02/23 02:36:24;;;;;;;5.20;1.90;;;5.80;99.90;5.20;100537.00;;;;4914659;28;93725;-67
2022/02/23 02:38:50;;;;;;;3.80;1.10;;;5.60;99.90;5.20;100551.00;;;;4914989;28;110653;-69
2022/02/23 02:41:16;;;;;;;4.10;1.57;;;5.70;99.90;5.10;100557.00;;;;4911935;28;108378;-68
2022/02/23 02:43:41;;;;;;;9.40;2.47;;;5.30;99.90;5.10;100555.00;;;;4914085;28;121005;-66
2022/02/23 02:46:07;;;;;;;4.53;1.57;;;5.20;99.90;5.10;100566.00;;;;4929299;28;122121;-66
2022/02/23 02:48:33;;;;;;;5.10;1.47;;;5.20;99.90;5.00;100564.00;;;;4929920;28;109964;-68
2022/02/23 02:50:58;;;;;;;3.47;2.20;;;5.20;99.90;5.00;100565.00;;;;4913628;28;109218;-66
2022/02/23 02:53:24;;;;;;;4.07;1.63;;;5.10;99.90;5.00;100575.00;;;;4913765;28;121798;-67
2022/02/23 02:55:49;;;;;;;10.50;1.90;;;5.10;99.90;5.00;100589.00;;;;4913612;28;100390;-67
2022/02/23 02:58:15;;;;;;;2.70;1.83;;;5.50;99.90;5.00;100596.00;;;;4913779;28;110262;-65
2022/02/23 03:00:41;;;;;;;5.50;1.23;;;5.10;99.90;4.90;100592.00;;;;4913755;28;93871;-66
2022/02/23 03:03:07;;;;;;;10.83;1.67;;;5.10;99.90;4.90;100596.00;;;;4913567;28;122579;-68
2022/02/23 03:05:33;;;;;;;0.77;0.60;;;5.10;99.90;4.90;100605.00;;;;4912628;28;122139;-67
2022/02/23 03:07:59;;;;;;;6.37;1.23;;;5.10;99.90;5.00;100604.00;;;;4914978;28;92839;-68
2022/02/23 03:10:25;;;;;;;3.77;1.33;;;5.10;99.90;5.10;100619.00;;;;4913184;28;109882;-65
2022/02/23 03:12:50;;;;;;;3.80;2.40;;;5.20;99.90;5.20;100617.00;;;;4914832;28;103347;-68
2022/02/23 03:15:16;;;;;;;1.63;1.13;;;5.30;99.90;5.20;100619.00;;;;4930060;28;120717;-68
2022/02/23 03:17:42;;;;;;;4.10;1.67;;;5.60;99.90;5.30;100620.00;;;;4931986;28;109626;-68
2022/02/23 03:20:08;;;;;;;5.80;1.43;;;5.50;99.90;5.40;100629.00;;;;4947081;28;92961;-68
2022/02/23 03:22:35;;;;;;;4.53;1.33;;;5.50;99.90;5.40;100638.00;;;;4931142;28;106067;-67
2022/02/23 03:25:02;;;;;;;3.13;1.40;;;5.90;99.90;5.40;100635.00;;;;4932522;28;93858;-67
2022/02/23 03:27:28;;;;;;;7.30;1.90;;;6.20;99.90;5.30;100633.00;;;;4930914;28;96920;-67
2022/02/23 03:29:54;;;;;;;5.63;1.47;;;5.50;99.90;5.30;100644.00;;;;4931892;28;109220;-67
2022/02/23 03:32:19;;;;;;;4.30;1.83;;;5.50;99.90;5.20;100638.00;;;;4930761;28;123265;-67
2022/02/23 03:34:45;;;;;;;6.77;1.77;;;5.40;99.90;5.20;100644.00;;;;4946571;28;121989;-68
2022/02/23 03:37:10;;;;;;;7.83;1.50;;;5.30;99.90;5.20;100656.00;;;;4931104;28;92835;-68
2022/02/23 03:39:39;;;;;;;2.57;1.43;;;5.30;99.90;5.20;100663.00;;;;4935308;28;107935;-68
2022/02/23 03:42:05;;;;;;;6.73;1.60;;;5.30;99.90;5.20;100662.00;;;;4926602;28;115016;-67
2022/02/23 03:44:31;;;;;;;3.90;1.53;;;5.40;99.90;5.30;100666.00;;;;4916753;28;93429;-67
2022/02/23 03:46:57;;;;;;;1.77;1.07;;;5.40;99.90;5.30;100664.00;;;;4915519;28;110432;-67
2022/02/23 03:49:22;;;;;;;5.87;1.27;;;5.40;99.90;5.20;100662.00;;;;4925468;28;108362;-68
2022/02/23 03:51:48;;;;;;;2.63;1.37;;;5.40;99.90;5.20;100674.00;;;;4935528;28;123860;-66
2022/02/23 03:54:14;;;;;;;5.00;1.57;;;5.30;99.90;5.10;100672.00;;;;4935712;28;121447;-66
2022/02/23 03:56:42;;;;;;;1.53;1.23;;;5.20;99.90;5.10;100677.00;;;;4931920;28;92815;-67
2022/02/23 03:59:14;;;;;;;6.20;1.00;;;5.20;99.90;5.00;100694.00;;;;4915940;28;92746;-68
2022/02/23 04:01:45;;;;;;;1.70;1.33;;;5.20;99.90;5.00;100704.00;;;;4917032;28;93381;-66
2022/02/23 04:04:11;;;;;;;4.23;1.80;;;5.20;99.90;5.10;100705.00;;;;4916430;28;93123;-66
2022/02/23 04:06:37;;;;;;;5.00;1.50;;;5.10;99.90;5.10;100718.00;;;;4916114;28;110580;-68
2022/02/23 04:09:09;;;;;;;7.20;2.13;;;5.20;99.90;5.20;100725.00;;;;4917733;28;93028;-68
2022/02/23 04:11:35;;;;;;;8.27;1.80;;;5.30;99.90;5.30;100729.00;;;;4914189;28;96140;-68
2022/02/23 04:14:04;;;;;;;4.07;1.30;;;5.60;99.90;5.30;100737.00;;;;4915999;28;109781;-67
2022/02/23 04:16:30;;;;;;;2.57;1.30;;;5.50;99.90;5.40;100735.00;;;;4919474;28;93036;-66
2022/02/23 04:18:56;;;;;;;3.03;1.33;;;5.50;99.90;5.40;100731.00;;;;4936883;28;92857;-67
2022/02/23 04:21:22;;;;;;;6.30;2.07;;;5.50;99.90;5.40;100736.00;;;;4934702;28;117231;-67
2022/02/23 04:23:48;;;;;;;6.10;1.87;;;6.30;99.90;5.40;100743.00;;;;4936708;28;93271;-67
2022/02/23 04:26:16;;;;;;;5.83;1.47;;;5.50;99.90;5.30;100745.00;;;;4933372;28;112025;-66
2022/02/23 04:28:42;;;;;;;3.73;1.33;;;6.20;99.90;5.30;100751.00;;;;4937302;28;93001;-66
2022/02/23 04:31:08;;;;;;;4.20;1.30;;;5.40;99.90;5.20;100744.00;;;;4932044;28;111447;-65
2022/02/23 04:33:35;;;;;;;2.97;1.17;;;5.40;99.90;5.20;100740.00;;;;4932455;28;93148;-67
2022/02/23 04:36:05;;;;;;;2.03;0.83;;;5.40;99.90;5.20;100763.00;;;;4930553;28;93016;-67
2022/02/23 04:38:30;;;;;;;1.30;1.00;;;5.30;99.90;5.20;100750.00;;;;4913909;28;93808;-67
2022/02/23 04:40:56;;;;;;;2.07;1.37;;;5.30;99.90;5.20;100767.00;;;;4915082;28;115801;-66
2022/02/23 04:43:22;;;;;;;2.80;1.53;;;5.90;99.90;5.10;100766.00;;;;4915528;28;122790;-65
2022/02/23 04:45:50;;;;;;;3.33;1.20;;;5.30;99.90;5.00;100776.00;;;;4928923;28;110288;-67
2022/02/23 04:48:17;;;;;;;2.50;1.37;;;5.20;99.90;4.90;100765.00;;;;4936145;28;92905;-67
2022/02/23 04:50:43;;;;;;;4.93;1.77;;;5.10;99.90;4.90;100769.00;;;;4934538;28;93491;-66
2022/02/23 04:53:09;;;;;;;3.47;1.27;;;5.30;99.90;4.80;100782.00;;;;4935893;28;93285;-66
2022/02/23 04:55:35;;;;;;;8.37;1.80;;;5.00;99.90;4.70;100778.00;;;;4925757;28;92209;-67
2022/02/23 04:58:07;;;;;;;3.40;1.67;;;5.00;99.90;4.70;100789.00;;;;4916369;28;93278;-68
2022/02/23 05:00:35;;;;;;;3.60;1.10;;;4.90;99.90;4.60;100793.00;;;;4915679;28;93552;-69
2022/02/23 05:03:01;;;;;;;3.57;1.00;;;4.90;99.90;4.60;100795.00;;;;4915561;28;93853;-68
2022/02/23 05:05:27;;;;;;;1.57;1.20;;;4.80;99.90;4.50;100803.00;;;;4915296;28;110323;-69
2022/02/23 05:07:52;;;;;;;5.37;1.97;;;4.20;99.90;4.50;100811.00;;;;4928594;28;107335;-67
2022/02/23 05:10:18;;;;;;;5.13;1.03;;;4.70;99.90;4.50;100819.00;;;;4933541;28;120310;-67
2022/02/23 05:12:43;;;;;;;5.80;1.77;;;4.60;99.90;4.40;100813.00;;;;4921634;28;122534;-68
2022/02/23 05:15:09;;;;;;;13.57;1.70;;;4.70;99.90;4.50;100826.00;;;;4914607;28;109963;-69
2022/02/23 05:17:35;;;;;;;2.63;1.00;;;4.90;99.90;4.40;100834.00;;;;4914784;28;109510;-68
2022/02/23 05:20:02;;;;;;;2.30;1.17;;;4.60;99.90;4.50;100848.00;;;;4914946;28;120794;-69
2022/02/23 05:22:27;;;;;;;4.90;1.27;;;4.60;99.90;4.50;100858.00;;;;4915615;28;93099;-67
2022/02/23 05:24:53;;;;;;;2.20;1.23;;;5.10;99.90;4.60;100858.00;;;;4915457;28;92786;-68
2022/02/23 05:27:19;;;;;;;3.27;1.37;;;4.70;99.90;4.60;100861.00;;;;4922419;28;108915;-68
2022/02/23 05:29:44;;;;;;;1.50;1.07;;;4.70;99.90;4.70;100870.00;;;;4934476;28;101227;-68
2022/02/23 05:32:10;;;;;;;2.03;0.90;;;4.80;99.90;4.60;100872.00;;;;4930847;28;106656;-67
2022/02/23 05:34:35;;;;;;;6.67;1.70;;;5.00;99.90;4.60;100877.00;;;;4915287;28;107668;-69
2022/02/23 05:37:01;;;;;;;6.27;1.77;;;3.30;99.90;4.60;100881.00;;;;4920858;28;107774;-67
2022/02/23 05:39:27;;;;;;;2.30;1.50;;;4.80;99.90;4.60;100875.00;;;;4916534;28;97976;-69
2022/02/23 05:41:53;;;;;;;4.07;1.40;;;4.80;99.90;4.70;100891.00;;;;4914494;28;123813;-69
2022/02/23 05:44:18;;;;;;;4.47;1.67;;;4.80;99.90;4.80;100878.00;;;;4915539;28;109211;-69
2022/02/23 05:46:44;;;;;;;8.60;1.93;;;4.80;99.90;4.90;100900.00;;;;4915850;28;107977;-69
2022/02/23 05:49:10;;;;;;;3.63;1.40;;;5.00;99.90;5.00;100908.00;;;;4914150;28;117962;-68
2022/02/23 05:51:38;;;;;;;2.47;1.17;;;5.00;99.90;5.10;100892.00;;;;4918211;28;95677;-69
2022/02/23 05:54:05;;;;;;;4.47;1.37;;;5.20;99.90;5.20;100916.00;;;;4934086;28;97762;-68
2022/02/23 05:56:33;;;;;;;5.37;1.60;;;5.30;99.90;5.30;100912.00;;;;4931811;28;108660;-69
2022/02/23 05:58:58;;;;;;;3.00;1.30;;;5.40;99.90;5.30;100912.00;;;;4916261;28;113450;-69
2022/02/23 06:01:24;;;;;;;10.13;1.77;;;5.40;99.90;5.40;100926.00;;;;4914340;28;122254;-68
2022/02/23 06:03:50;;;;;;;7.47;1.53;;;6.10;99.90;5.50;100922.00;;;;4915624;28;93001;-69
2022/02/23 06:06:16;;;;;;;9.17;1.80;;;5.60;99.90;5.60;100933.00;;;;4915996;28;93097;-69
2022/02/23 06:08:42;;;;;;;4.47;1.33;;;5.60;99.90;5.60;100937.00;;;;4914967;28;122135;-68
2022/02/23 06:11:08;;;;;;;7.83;1.87;;;5.70;99.90;5.70;100941.00;;;;4913579;28;93161;-68
2022/02/23 06:13:34;;;;;;;4.57;1.60;;;5.70;99.90;5.80;100942.00;;;;4915252;28;92765;-69
2022/02/23 06:16:01;;;;;;;8.83;1.67;;;6.30;99.90;5.80;100946.00;;;;4914555;28;93881;-67
2022/02/23 06:18:28;;;;;;;1.27;1.00;;;5.90;99.90;5.80;100949.00;;;;4915623;28;93973;-68
2022/02/23 06:20:55;;;;;;;1.07;0.67;;;6.50;99.90;5.80;100956.00;;;;4914488;28;103757;-68
2022/02/23 06:23:22;;;;;;;10.30;1.60;;;5.90;99.90;5.90;100957.00;;;;4928494;28;92862;-67
2022/02/23 06:25:49;;;;;;;2.63;1.37;;;5.90;99.90;5.90;100962.00;;;;4934532;28;92849;-66
2022/02/23 06:28:15;;;;;;;6.13;1.20;;;6.30;99.90;5.90;100969.00;;;;4923171;28;93267;-66
2022/02/23 06:30:42;;;;;;;2.20;1.33;;;6.60;99.90;6.00;100972.00;;;;4911866;28;105509;-65
2022/02/23 06:33:09;;;;;;;6.60;1.43;;;6.10;99.90;6.00;100987.00;;;;4926768;28;92255;-66
2022/02/23 06:35:34;;;;;;;10.07;2.13;;;6.20;99.90;6.10;100979.00;;;;4929515;28;97994;-65
2022/02/23 06:38:01;;;;;;;4.77;1.83;;;6.70;99.90;6.10;101000.00;;;;4929511;28;108635;-65
2022/02/23 06:40:27;;;;;;;5.50;1.83;;;6.20;99.90;6.20;100997.00;;;;4927387;28;112844;-66
2022/02/23 06:42:53;;;;;;;7.83;1.93;;;6.30;99.90;6.20;100992.00;;;;4929224;28;108332;-67
2022/02/23 06:45:19;;;;;;;1.13;0.97;;;6.30;99.90;6.20;100983.00;;;;4922625;28;107291;-66
2022/02/23 06:47:44;;;;;;;9.67;1.97;;;6.80;99.90;6.20;101003.00;;;;4929428;28;122290;-67
2022/02/23 06:50:10;;;;;;;1.57;1.17;;;6.40;99.90;6.20;101011.00;;;;4929798;28;93793;-66
2022/02/23 06:52:37;;;;;;;3.97;1.57;;;6.50;99.90;6.20;100997.00;;;;4925866;28;100970;-66
2022/02/23 06:55:05;;;;;;;3.70;1.20;;;7.00;99.90;6.20;101011.00;;;;4927409;28;93153;-65
2022/02/23 06:57:39;;;;;;;1.90;1.23;;;6.30;99.90;6.30;101013.00;;;;4930127;28;92700;-64
2022/02/23 07:00:07;;;;;;;2.33;1.50;;;6.90;99.90;6.30;101019.00;;;;4927072;28;92811;-66
2022/02/23 07:02:34;;;;;;;2.10;1.27;;;6.40;99.90;6.30;101028.00;;;;4927216;28;104350;-66
2022/02/23 07:05:00;;;;;;;4.13;1.47;;;6.40;99.90;6.30;101028.00;;;;4923777;28;109751;-66
2022/02/23 07:07:26;;;;;;;3.13;1.27;;;6.40;99.90;6.40;101030.00;;;;4928760;28;111630;-68
2022/02/23 07:09:52;;;;;;;2.40;1.30;;;6.10;99.90;6.40;101047.00;;;;4927172;28;110013;-66
2022/02/23 07:12:18;;;;;;;5.13;1.43;;;6.40;99.90;6.40;101051.00;;;;4929714;28;92983;-67
2022/02/23 07:14:43;;;;;;;5.07;1.70;;;6.50;99.90;6.40;101056.00;;;;4928524;28;109159;-67
2022/02/23 07:17:10;;;;;;;3.60;1.50;;;6.90;99.90;6.40;101063.00;;;;4928727;28;122827;-68
2022/02/23 07:19:36;;;;;;;6.80;1.33;;;6.50;99.90;6.50;101070.00;;;;4927820;28;92893;-67
2022/02/23 07:22:03;;;;;;;4.80;1.63;;;6.50;99.90;6.50;101069.00;;;;4930626;28;92160;-67
2022/02/23 07:24:30;;;;;;;2.27;1.23;;;6.60;99.90;6.50;101071.00;;;;4929599;28;93145;-67
2022/02/23 07:26:56;;;;;;;4.93;0.97;;;6.60;99.90;6.50;101087.00;;;;4928499;28;93109;-66
2022/02/23 07:29:23;;;;;;;4.17;1.73;;;7.20;99.90;6.50;101094.00;;;;4927922;28;121062;-66
2022/02/23 07:31:49;;;;;;;2.30;1.20;;;6.60;99.90;6.60;101113.00;;;;4930134;28;93012;-67
2022/02/23 07:34:16;;;;;;;4.80;1.43;;;7.00;99.90;6.60;101105.00;;;;4929200;28;96999;-66
2022/02/23 07:36:42;;;;;;;6.43;1.63;;;7.20;99.90;6.70;101119.00;;;;4929604;28;93651;-67
2022/02/23 07:39:09;;;;;;;1.73;1.00;;;6.80;99.90;6.70;101113.00;;;;4929713;28;93753;-67
2022/02/23 07:41:35;;;;;;;6.83;1.60;;;7.40;99.90;6.80;101125.00;;;;4929960;28;92951;-68
2022/02/23 07:44:01;;;;;;;4.30;0.93;;;6.90;99.90;6.80;101135.00;;;;4927842;28;92822;-66
2022/02/23 07:46:28;;;;;;;4.50;0.97;;;7.00;99.90;6.80;101130.00;;;;4928684;28;92775;-66
2022/02/23 07:49:00;;;;;;;3.73;1.13;;;6.90;99.90;6.80;101125.00;;;;4926139;28;92741;-66
2022/02/23 07:51:27;;;;;;;1.40;1.10;;;6.90;99.90;6.90;101121.00;;;;4929709;28;93084;-67
2022/02/23 07:53:55;;;;;;;4.00;1.23;;;7.00;99.90;6.90;101128.00;;;;4929506;28;93984;-68
2022/02/23 07:56:22;;;;;;;3.33;1.27;;;7.00;99.90;7.00;101146.00;;;;4914943;28;95526;-67
2022/02/23 07:58:49;;;;;;;6.73;1.20;;;7.50;99.90;7.00;101150.00;;;;4926353;28;95994;-66
2022/02/23 08:01:34;;;;;;;2.53;1.10;;;7.10;99.90;7.00;101157.00;;;;4929599;28;92911;-67
2022/02/23 08:04:02;;;;;;;5.43;1.87;;;7.10;99.90;7.10;101152.00;;;;4923387;28;93020;-67
2022/02/23 08:06:28;;;;;;;7.57;1.57;;;7.10;99.90;7.10;101168.00;;;;4929195;28;93430;-66
2022/02/23 08:08:55;;;;;;;6.33;1.20;;;7.20;99.90;7.20;101168.00;;;;4928815;28;92973;-67
2022/02/23 08:11:22;;;;;;;4.03;1.00;;;7.30;99.90;7.30;101177.00;;;;4929309;28;92113;-66
2022/02/23 08:13:48;;;;;;;7.40;1.57;;;7.40;99.90;7.30;101180.00;;;;4929692;28;92870;-66
2022/02/23 08:21:53;;;;;;;4.23;1.53;;;7.70;99.90;7.50;101188.00;;;;4926278;28;92759;-66
2022/02/23 08:24:19;;;;;;;3.73;1.20;;;7.50;99.90;7.50;101190.00;;;;4929641;28;92842;-68
2022/02/23 08:26:45;;;;;;;4.70;1.20;;;7.50;99.90;7.50;101187.00;;;;4930087;28;108488;-66
2022/02/23 08:29:10;;;;;;;4.17;1.10;;;7.60;99.90;7.60;101205.00;;;;4931159;28;122525;-66
2022/02/23 08:31:37;;;;;;;1.27;0.80;;;8.00;99.90;7.60;101200.00;;;;4932149;28;108733;-65
2022/02/23 08:34:03;;;;;;;6.60;1.33;;;7.70;99.90;7.70;101197.00;;;;4932275;28;93049;-66
2022/02/23 08:36:28;;;;;;;5.47;1.70;;;7.70;99.90;7.70;101213.00;;;;4933691;28;122390;-66
2022/02/23 08:38:54;;;;;;;4.83;1.17;;;7.70;99.90;7.70;101194.00;;;;4940530;28;122437;-69
2022/02/23 08:41:20;;;;;;;2.83;1.13;;;7.70;99.90;7.70;101199.00;;;;4932119;28;110615;-69
2022/02/23 08:43:45;;;;;;;2.23;0.87;;;7.80;99.90;7.70;101203.00;;;;4930751;28;109069;-69
2022/02/23 08:46:11;;;;;;;4.07;1.00;;;7.70;99.90;7.70;101202.00;;;;4931576;28;121771;-67
2022/02/23 08:48:37;;;;;;;4.87;1.73;;;7.80;99.90;7.70;101191.00;;;;4929358;28;120671;-67
2022/02/23 08:51:03;;;;;;;6.30;1.13;;;7.80;99.90;7.80;101210.00;;;;4930372;28;109847;-65
2022/02/23 08:53:29;;;;;;;1.87;0.97;;;7.80;99.90;7.80;101206.00;;;;4931258;28;109409;-67
2022/02/23 08:55:55;;;;;;;7.83;1.37;;;7.90;99.90;7.80;101213.00;;;;4931618;28;93069;-68
2022/02/23 08:58:21;;;;;;;2.13;0.73;;;7.90;99.90;7.90;101219.00;;;;4930279;28;123181;-66
2022/02/23 09:00:48;;;;;;;0.80;0.80;;;7.90;99.90;7.90;101222.00;;;;4929439;28;107924;-68
2022/02/23 09:03:21;;;;;;;5.00;1.30;;;8.00;99.90;8.00;101231.00;;;;4931641;28;92934;-66
2022/02/23 09:05:47;;;;;;;3.47;0.93;;;8.00;99.90;8.10;101223.00;;;;4931223;28;93771;-68
2022/02/23 09:08:13;;;;;;;3.07;1.63;;;8.10;99.90;8.10;101231.00;;;;4930522;28;93835;-67
2022/02/23 09:10:40;;;;;;;4.57;1.23;;;8.20;99.90;8.10;101242.00;;;;4931743;28;92802;-67
2022/02/23 09:13:07;;;;;;;3.83;1.40;;;7.80;99.90;8.10;101240.00;;;;4930915;28;101643;-68
2022/02/23 09:15:34;;;;;;;3.03;1.03;;;8.50;99.90;8.10;101242.00;;;;4931398;28;94067;-66
2022/02/23 09:18:01;;;;;;;1.77;0.87;;;8.20;99.90;8.10;101245.00;;;;4930959;28;93867;-66
2022/02/23 09:20:28;;;;;;;10.23;1.30;;;8.20;99.60;8.10;101235.00;;;;4931371;28;92790;-67
2022/02/23 09:22:54;;;;;;;1.33;0.80;;;8.20;98.80;8.10;101253.00;;;;4931074;28;93067;-66
2022/02/23 09:25:21;;;;;;;3.00;1.00;;;8.20;98.10;8.10;101260.00;;;;4933186;28;101184;-66
2022/02/23 09:27:47;;;;;;;1.80;0.90;;;8.10;97.50;8.00;101258.00;;;;4934255;28;100554;-66
2022/02/23 09:30:14;;;;;;;6.23;1.33;;;8.10;95.70;8.10;101253.00;;;;4932919;28;101787;-67
2022/02/23 09:32:41;;;;;;;3.13;1.33;;;8.10;96.20;8.10;101273.00;;;;4928847;28;93899;-67
2022/02/23 09:35:09;;;;;;;6.13;1.17;;;8.10;95.70;8.10;101269.00;;;;4931082;28;93852;-68
2022/02/23 09:37:36;;;;;;;3.17;1.60;;;8.10;97.10;8.10;101266.00;;;;4929672;28;93524;-66
2022/02/23 09:40:04;;;;;;;3.50;1.27;;;8.10;97.20;8.10;101279.00;;;;4930993;28;92915;-66
2022/02/23 09:42:31;;;;;;;8.87;1.70;;;8.20;97.20;8.10;101268.00;;;;4928623;28;97806;-68
2022/02/23 09:44:59;;;;;;;8.27;1.93;;;8.20;97.60;8.10;101279.00;;;;4931263;28;93509;-68
2022/02/23 09:47:26;;;;;;;4.83;1.20;;;8.20;97.80;8.10;101271.00;;;;4930931;28;92783;-67
2022/02/23 09:49:55;;;;;;;3.83;1.20;;;8.20;96.90;8.20;101273.00;;;;4930898;28;95281;-66
2022/02/23 09:52:24;;;;;;;2.03;1.40;;;8.20;96.00;8.20;101280.00;;;;4929293;28;92964;-67
2022/02/23 09:54:51;;;;;;;4.20;1.77;;;8.20;95.80;8.20;101270.00;;;;4923832;28;93018;-68
2022/02/23 09:57:18;;;;;;;4.90;1.13;;;8.20;95.40;8.20;101274.00;;;;4914086;28;93988;-67
2022/02/23 09:59:44;;;;;;;7.53;1.53;;;8.30;95.40;8.30;101279.00;;;;4927311;28;93048;-67
2022/02/23 10:02:13;;;;;;;5.27;1.40;;;8.30;95.90;8.30;101281.00;;;;4921406;28;93044;-67
2022/02/23 10:04:40;;;;;;;3.53;1.43;;;8.30;95.60;8.40;101282.00;;;;4930589;28;93600;-67
2022/02/23 10:07:08;;;;;;;5.77;1.10;;;8.40;95.90;8.50;101288.00;;;;4930755;28;93539;-66
2022/02/23 10:09:41;;;;;;;5.30;1.00;;;8.50;95.40;8.50;101288.00;;;;4926057;28;93143;-67
2022/02/23 10:12:07;;;;;;;1.20;0.93;;;8.60;94.80;8.70;101277.00;;;;4931208;28;93055;-67
2022/02/23 10:14:33;;;;;;;8.40;1.90;;;8.70;94.60;8.90;101290.00;;;;4932051;28;93234;-67
2022/02/23 10:16:59;;;;;;;8.00;1.20;;;8.80;92.80;9.10;101293.00;;;;4931980;28;121712;-67
2022/02/23 10:19:24;;;;;;;4.53;1.47;;;9.10;92.80;9.20;101286.00;;;;4931955;28;109707;-67
2022/02/23 10:22:02;;;;;;;8.57;1.27;;;9.20;90.50;9.30;101298.00;;;;4926696;28;107291;-67
2022/02/23 10:24:33;;;;;;;3.47;0.90;;;9.30;90.30;9.60;101291.00;;;;4931456;28;97984;-66
2022/02/23 10:27:06;;;;;;;2.33;1.37;;;9.50;91.10;10.00;101298.00;;;;4925979;28;94225;-66
2022/02/23 10:29:47;;;;;;;2.73;0.93;;;9.90;91.80;10.30;101291.00;;;;4932158;28;93075;-66
2022/02/23 10:32:14;;;;;;;1.60;1.17;;;10.20;88.50;10.50;101303.00;;;;4933215;28;93037;-68
2022/02/23 10:34:47;;;;;;;11.67;1.77;;;10.50;86.60;10.70;101292.00;;;;4931572;28;113102;-67
2022/02/23 10:37:17;;;;;;;1.50;0.80;;;10.60;84.50;10.90;101311.00;;;;4929687;28;93795;-66
2022/02/23 10:39:48;;;;;;;1.50;0.87;;;10.80;86.00;11.20;101306.00;;;;4932880;28;91986;-68
2022/02/23 10:42:32;;;;;;;6.17;1.37;;;11.10;84.60;11.50;101295.00;;;;4929582;28;93115;-66
2022/02/23 10:45:00;;;;;;;7.93;1.80;;;11.40;78.30;11.60;101308.00;;;;4921475;28;92916;-67
2022/02/23 10:47:33;;;;;;;2.60;0.90;;;12.30;74.10;11.60;101306.00;;;;4931111;28;94075;-67
2022/02/23 10:50:11;;;;;;;2.37;1.10;;;11.60;74.50;11.70;101321.00;;;;4932743;28;92772;-66
2022/02/23 10:52:44;;;;;;;4.43;1.33;;;11.70;70.90;11.70;101323.00;;;;4930646;28;93081;-67
2022/02/23 10:55:26;;;;;;;3.77;1.20;;;11.70;70.40;11.50;101315.00;;;;4931977;28;94082;-67
2022/02/23 10:58:00;;;;;;;4.27;0.80;;;11.60;69.60;11.40;101313.00;;;;4931953;28;93821;-66
2022/02/23 11:00:35;;;;;;;3.13;1.13;;;11.50;68.00;11.20;101308.00;;;;4932110;28;93018;-67